createdAt,value
2022-08-02T00:01:14.990Z,18.02
2022-08-02T00:04:01.101Z,18.01
2022-08-02T00:06:29.468Z,17.95
2022-08-02T00:08:57.902Z,18.03
2022-08-02T00:11:29.532Z,18.11
2022-08-02T00:14:10.311Z,18.05
2022-08-02T00:16:42.615Z,18.27
2022-08-02T00:19:11.009Z,18.24
2022-08-02T00:21:39.342Z,18.20
2022-08-02T00:24:30.025Z,18.11
2022-08-02T00:27:25.868Z,18.29
2022-08-02T00:29:55.900Z,17.97
2022-08-02T00:32:27.911Z,17.93
2022-08-02T00:34:56.148Z,18.22
2022-08-02T00:37:24.467Z,18.26
2022-08-02T00:39:54.581Z,18.07
2022-08-02T00:42:33.154Z,17.74
2022-08-02T00:45:05.407Z,18.21
2022-08-02T00:47:33.721Z,18.01
2022-08-02T00:50:02.412Z,18.20
2022-08-02T00:52:30.605Z,18.02
2022-08-02T00:55:31.187Z,18.06
2022-08-02T00:58:03.843Z,18.08
2022-08-02T01:00:42.080Z,18.03
2022-08-02T01:03:10.389Z,18.21
2022-08-02T01:06:10.035Z,18.43
2022-08-02T01:08:36.909Z,18.13
2022-08-02T01:14:09.009Z,17.93
2022-08-02T01:16:41.275Z,17.97
2022-08-02T01:23:01.712Z,17.37
2022-08-02T01:26:07.250Z,17.13
2022-08-02T01:28:55.541Z,17.80
2022-08-02T01:31:42.388Z,17.11
2022-08-02T01:34:25.976Z,17.48
2022-08-02T01:37:04.241Z,16.79
2022-08-02T01:44:04.222Z,17.71
2022-08-02T01:49:57.495Z,17.78
2022-08-02T01:52:53.447Z,17.33
2022-08-02T01:55:35.063Z,17.50
2022-08-02T01:58:32.635Z,16.92
2022-08-02T02:01:02.958Z,16.98
2022-08-02T02:04:20.607Z,17.53
2022-08-02T02:14:51.411Z,17.42
2022-08-02T02:25:08.742Z,17.50
2022-08-02T02:28:00.254Z,17.47
2022-08-02T02:30:44.925Z,17.48
2022-08-02T02:33:15.234Z,16.76
2022-08-02T02:36:11.502Z,16.55
2022-08-02T02:39:10.213Z,16.67
2022-08-02T02:42:14.878Z,17.10
2022-08-02T02:48:17.098Z,17.00
2022-08-02T02:54:57.142Z,17.11
2022-08-02T02:58:41.080Z,17.08
2022-08-02T03:37:31.418Z,16.54
2022-08-02T04:44:36.295Z,16.05
2022-08-02T04:54:41.884Z,16.34
2022-08-02T04:57:24.016Z,16.24
2022-08-02T04:59:54.715Z,16.47
2022-08-02T05:02:23.248Z,16.49
2022-08-02T05:04:51.975Z,16.74
2022-08-02T05:07:22.182Z,16.63
2022-08-02T05:09:50.558Z,16.53
2022-08-02T05:12:20.270Z,16.57
2022-08-02T05:14:48.604Z,16.80
2022-08-02T05:17:19.783Z,16.95
2022-08-02T05:19:48.133Z,17.25
2022-08-02T05:22:16.451Z,17.23
2022-08-02T05:24:44.832Z,17.16
2022-08-02T05:27:16.512Z,16.96
2022-08-02T05:29:53.910Z,17.55
2022-08-02T05:32:30.354Z,17.25
2022-08-02T05:34:58.802Z,17.59
2022-08-02T05:37:32.461Z,17.96
2022-08-02T05:40:12.931Z,17.77
2022-08-02T05:42:52.440Z,17.70
2022-08-02T05:45:20.914Z,17.87
2022-08-02T05:47:53.906Z,18.04
2022-08-02T05:50:27.888Z,18.15
2022-08-02T05:53:19.075Z,17.93
2022-08-02T06:02:21.241Z,17.70
2022-08-02T07:16:30.783Z,21.75
2022-08-02T07:18:59.095Z,21.41
2022-08-02T07:21:56.743Z,21.39
2022-08-02T07:31:37.949Z,21.94
2022-08-02T07:34:06.090Z,21.66
2022-08-02T07:37:00.426Z,22.00
2022-08-02T07:45:19.359Z,22.67
2022-08-02T07:47:48.823Z,22.50
2022-08-02T07:50:18.183Z,22.48
2022-08-02T07:52:46.527Z,22.42
2022-08-02T07:55:15.753Z,22.64
2022-08-02T07:57:46.411Z,22.68
2022-08-02T08:00:17.717Z,22.71
2022-08-02T08:02:47.325Z,22.39
2022-08-02T08:05:18.582Z,22.51
2022-08-02T08:07:46.882Z,22.83
2022-08-02T08:10:15.196Z,22.92
2022-08-02T08:12:43.778Z,23.00
2022-08-02T08:15:13.164Z,23.21
2022-08-02T08:17:41.378Z,23.55
2022-08-02T08:20:15.391Z,23.69
2022-08-02T08:22:45.729Z,23.71
2022-08-02T08:25:13.867Z,24.17
2022-08-02T08:27:49.648Z,24.41
2022-08-02T08:30:18.018Z,23.81
2022-08-02T08:32:46.706Z,23.91
2022-08-02T08:35:15.141Z,23.65
2022-08-02T08:37:45.050Z,23.55
2022-08-02T08:40:19.675Z,23.22
2022-08-02T08:42:48.281Z,23.80
2022-08-02T08:45:18.129Z,24.30
2022-08-02T08:47:52.620Z,23.63
2022-08-02T08:50:25.134Z,23.74
2022-08-02T08:53:02.890Z,23.96
2022-08-02T08:55:31.652Z,24.05
2022-08-02T08:58:00.819Z,23.64
2022-08-02T09:00:30.859Z,23.70
2022-08-02T09:02:59.545Z,23.68
2022-08-02T09:05:27.612Z,23.80
2022-08-02T09:07:57.048Z,23.95
2022-08-02T09:10:36.707Z,24.61
2022-08-02T09:13:31.339Z,24.45
2022-08-02T09:15:59.550Z,24.92
2022-08-02T09:18:41.332Z,25.05
2022-08-02T09:21:10.438Z,25.00
2022-08-02T09:23:41.596Z,25.15
2022-08-02T09:26:11.553Z,25.47
2022-08-02T09:28:41.667Z,25.65
2022-08-02T09:31:11.727Z,25.42
2022-08-02T09:33:41.442Z,24.46
2022-08-02T09:36:12.363Z,25.19
2022-08-02T09:38:42.806Z,25.13
2022-08-02T09:41:23.022Z,24.66
2022-08-02T09:44:03.714Z,24.55
2022-08-02T09:46:38.129Z,25.14
2022-08-02T09:49:08.528Z,25.29
2022-08-02T09:51:38.602Z,25.80
2022-08-02T09:54:10.261Z,25.72
2022-08-02T09:56:46.460Z,25.15
2022-08-02T09:59:15.391Z,25.91
2022-08-02T10:01:51.235Z,26.27
2022-08-02T10:04:28.713Z,26.81
2022-08-02T10:06:59.801Z,26.59
2022-08-02T10:09:30.101Z,26.45
2022-08-02T10:11:58.703Z,26.59
2022-08-02T10:14:27.879Z,26.05
2022-08-02T10:16:58.680Z,26.43
2022-08-02T10:20:00.095Z,26.14
2022-08-02T10:22:19.933Z,26.67
2022-08-02T10:24:50.763Z,26.89
2022-08-02T10:27:21.346Z,26.40
2022-08-02T10:29:55.917Z,26.56
2022-08-02T10:32:31.183Z,26.62
2022-08-02T10:35:18.623Z,27.08
2022-08-02T10:37:52.060Z,27.62
2022-08-02T10:40:26.920Z,27.53
2022-08-02T10:42:56.223Z,27.82
2022-08-02T10:45:24.486Z,27.55
2022-08-02T10:48:04.261Z,27.80
2022-08-02T10:50:54.462Z,28.27
2022-08-02T10:53:27.792Z,28.45
2022-08-02T10:55:58.523Z,28.44
2022-08-02T10:58:30.395Z,28.26
2022-08-02T11:01:00.116Z,27.64
2022-08-02T11:03:40.922Z,28.10
2022-08-02T11:06:25.509Z,28.15
2022-08-02T11:09:31.965Z,28.69
2022-08-02T11:12:08.450Z,28.40
2022-08-02T11:14:45.835Z,27.62
2022-08-02T11:17:38.237Z,27.28
2022-08-02T11:20:18.095Z,27.95
2022-08-02T11:22:49.860Z,28.32
2022-08-02T11:26:02.800Z,28.00
2022-08-02T11:28:29.772Z,28.93
2022-08-02T11:31:00.008Z,28.40
2022-08-02T11:33:37.333Z,28.82
2022-08-02T11:36:08.094Z,28.89
2022-08-02T11:38:37.222Z,28.76
2022-08-02T11:41:06.323Z,28.76
2022-08-02T11:43:39.987Z,29.27
2022-08-02T11:46:14.568Z,29.43
2022-08-02T11:48:44.056Z,29.51
2022-08-02T11:51:13.694Z,28.71
2022-08-02T11:53:47.319Z,28.57
2022-08-02T11:56:21.836Z,29.30
2022-08-02T11:59:05.893Z,29.14
2022-08-02T12:01:36.909Z,28.68
2022-08-02T12:04:18.704Z,29.60
2022-08-02T12:06:57.247Z,29.19
2022-08-02T12:09:27.068Z,29.91
2022-08-02T12:11:55.762Z,30.03
2022-08-02T12:14:26.259Z,30.09
2022-08-02T12:17:11.695Z,30.28
2022-08-02T12:19:42.337Z,30.46
2022-08-02T12:22:16.461Z,30.55
2022-08-02T12:24:47.984Z,30.07
2022-08-02T12:27:33.116Z,30.79
2022-08-02T12:30:06.224Z,29.92
2022-08-02T12:32:34.322Z,29.79
2022-08-02T12:35:04.969Z,30.16
2022-08-02T12:37:33.251Z,29.97
2022-08-02T12:40:20.823Z,30.87
2022-08-02T12:42:56.297Z,30.43
2022-08-02T12:45:26.564Z,29.97
2022-08-02T12:47:57.386Z,30.59
2022-08-02T12:50:29.739Z,30.13
2022-08-02T12:53:09.576Z,30.95
2022-08-02T12:55:59.900Z,31.50
2022-08-02T12:58:30.343Z,31.38
2022-08-02T13:01:00.776Z,31.26
2022-08-02T13:04:10.269Z,31.23
2022-08-02T13:06:43.014Z,31.24
2022-08-02T13:09:14.744Z,30.90
2022-08-02T13:11:44.545Z,30.46
2022-08-02T13:14:14.462Z,31.32
2022-08-02T13:16:46.232Z,31.00
2022-08-02T13:19:16.128Z,31.27
2022-08-02T13:22:02.463Z,31.28
2022-08-02T13:24:41.081Z,31.14
2022-08-02T13:27:21.478Z,31.49
2022-08-02T13:29:50.216Z,31.39
2022-08-02T13:32:19.888Z,31.07
2022-08-02T13:34:48.247Z,31.66
2022-08-02T13:37:16.830Z,30.90
2022-08-02T13:40:00.176Z,31.67
2022-08-02T13:42:33.411Z,31.96
2022-08-02T13:45:11.831Z,31.48
2022-08-02T13:48:03.812Z,32.07
2022-08-02T13:50:33.132Z,31.71
2022-08-02T13:53:01.586Z,31.40
2022-08-02T13:55:30.468Z,31.50
2022-08-02T13:57:58.541Z,31.33
2022-08-02T14:00:35.616Z,31.85
2022-08-02T14:03:07.139Z,31.73
2022-08-02T14:05:47.131Z,31.86
2022-08-02T14:08:18.039Z,32.11
2022-08-02T14:10:47.201Z,32.04
2022-08-02T14:13:15.546Z,31.71
2022-08-02T14:15:44.136Z,31.94
2022-08-02T14:18:14.927Z,32.05
2022-08-02T14:20:43.406Z,31.46
2022-08-02T14:23:11.534Z,31.69
2022-08-02T14:25:39.602Z,32.14
2022-08-02T14:28:07.846Z,31.50
2022-08-02T14:30:36.636Z,32.18
2022-08-02T14:33:05.212Z,31.83
2022-08-02T14:35:35.051Z,32.12
2022-08-02T14:38:03.450Z,32.57
2022-08-02T14:40:32.176Z,32.37
2022-08-02T14:43:01.086Z,32.40
2022-08-02T14:45:39.752Z,32.17
2022-08-02T14:48:10.649Z,32.08
2022-08-02T14:50:40.437Z,32.34
2022-08-02T14:53:12.644Z,32.12
2022-08-02T14:55:41.894Z,32.08
2022-08-02T14:58:09.985Z,31.87
2022-08-02T15:00:40.885Z,31.57
2022-08-02T15:03:09.641Z,32.35
2022-08-02T15:05:39.143Z,32.38
2022-08-02T15:08:07.603Z,32.16
2022-08-02T15:10:35.648Z,32.39
2022-08-02T15:13:03.744Z,32.16
2022-08-02T15:15:31.865Z,32.85
2022-08-02T15:18:00.374Z,32.64
2022-08-02T15:20:28.873Z,32.68
2022-08-02T15:23:03.512Z,32.62
2022-08-02T15:25:31.619Z,32.03
2022-08-02T15:27:59.676Z,32.25
2022-08-02T15:30:27.910Z,32.72
2022-08-02T15:32:57.814Z,32.17
2022-08-02T15:35:25.929Z,32.50
2022-08-02T15:37:54.405Z,32.10
2022-08-02T15:40:24.053Z,31.68
2022-08-02T15:42:54.761Z,32.33
2022-08-02T15:45:25.747Z,32.89
2022-08-02T15:47:55.275Z,32.64
2022-08-02T15:50:27.427Z,32.38
2022-08-02T15:52:57.461Z,32.01
2022-08-02T15:55:29.945Z,32.20
2022-08-02T15:58:18.153Z,32.46
2022-08-02T16:00:50.800Z,32.31
2022-08-02T16:03:18.942Z,32.22
2022-08-02T16:05:47.944Z,32.38
2022-08-02T16:08:16.444Z,32.17
2022-08-02T16:10:46.010Z,32.68
2022-08-02T16:13:31.450Z,32.70
2022-08-02T16:15:59.938Z,32.34
2022-08-02T16:18:28.184Z,31.88
2022-08-02T16:20:56.292Z,31.71
2022-08-02T16:24:01.499Z,31.75
2022-08-02T16:26:17.114Z,31.79
2022-08-02T16:28:45.460Z,31.62
2022-08-02T16:31:14.329Z,31.52
2022-08-02T16:33:45.535Z,31.24
2022-08-02T16:36:15.056Z,31.50
2022-08-02T16:38:49.199Z,31.60
2022-08-02T16:41:22.022Z,31.31
2022-08-02T16:43:52.079Z,31.36
2022-08-02T16:46:24.987Z,31.26
2022-08-02T16:51:40.901Z,31.04
2022-08-02T16:54:34.758Z,31.25
2022-08-02T16:57:45.451Z,31.07
2022-08-02T17:00:25.052Z,30.87
2022-08-02T17:02:59.135Z,30.57
2022-08-02T17:05:55.840Z,30.92
2022-08-02T17:12:28.634Z,30.59
2022-08-02T17:14:58.645Z,30.37
2022-08-02T17:17:39.403Z,30.82
2022-08-02T17:21:12.206Z,30.40
2022-08-02T17:24:05.624Z,30.77
2022-08-02T17:26:36.687Z,30.61
2022-08-02T17:29:15.229Z,30.32
2022-08-02T17:32:02.909Z,30.21
2022-08-02T17:37:54.774Z,30.11
2022-08-02T17:40:30.914Z,30.57
2022-08-02T17:43:14.585Z,30.38
2022-08-02T17:46:01.134Z,29.96
2022-08-02T17:49:44.174Z,29.89
2022-08-02T17:52:51.700Z,29.85
2022-08-02T17:55:12.119Z,29.98
2022-08-02T18:00:38.828Z,29.81
2022-08-02T18:03:09.794Z,29.93
2022-08-02T18:05:53.015Z,29.96
2022-08-02T18:08:25.240Z,29.89
2022-08-02T18:10:54.580Z,29.68
2022-08-02T18:13:24.839Z,29.47
2022-08-02T18:16:00.544Z,29.04
2022-08-02T18:18:30.485Z,29.10
2022-08-02T18:21:15.939Z,28.77
2022-08-02T18:23:58.724Z,28.66
2022-08-02T18:26:40.750Z,28.22
2022-08-02T18:29:12.277Z,28.16
2022-08-02T18:31:50.904Z,27.78
2022-08-02T18:34:24.030Z,27.88
2022-08-02T18:36:54.062Z,27.99
2022-08-02T18:39:22.452Z,27.75
2022-08-02T18:41:50.744Z,27.51
2022-08-02T18:44:18.950Z,27.49
2022-08-02T18:46:49.372Z,27.62
2022-08-02T18:49:17.711Z,27.50
2022-08-02T18:51:47.443Z,27.23
2022-08-02T18:54:31.018Z,27.11
2022-08-02T18:57:04.148Z,26.92
2022-08-02T18:59:53.112Z,26.82
2022-08-02T19:02:22.592Z,26.61
2022-08-02T19:04:55.141Z,26.35
2022-08-02T19:07:23.581Z,26.13
2022-08-02T19:10:13.045Z,25.80
2022-08-02T19:12:41.159Z,25.69
2022-08-02T19:15:11.817Z,25.64
2022-08-02T19:17:54.780Z,25.57
2022-08-02T19:20:25.827Z,25.30
2022-08-02T19:22:54.011Z,25.07
2022-08-02T19:25:28.080Z,24.76
2022-08-02T19:27:57.063Z,24.82
2022-08-02T19:30:26.037Z,24.74
2022-08-02T19:33:00.292Z,24.60
2022-08-02T19:35:34.491Z,24.56
2022-08-02T19:38:10.361Z,24.38
2022-08-02T19:40:42.340Z,24.25
2022-08-02T19:44:26.682Z,24.31
2022-08-02T19:46:00.551Z,24.11
2022-08-02T19:48:29.022Z,24.16
2022-08-02T19:53:47.580Z,24.01
2022-08-02T19:56:20.451Z,23.89
2022-08-02T19:58:49.882Z,23.83
2022-08-02T20:01:26.997Z,23.80
2022-08-02T20:04:05.921Z,23.77
2022-08-02T20:06:34.072Z,23.67
2022-08-02T20:09:02.190Z,23.67
2022-08-02T20:11:35.099Z,23.64
2022-08-02T20:14:19.869Z,23.48
2022-08-02T20:16:55.380Z,23.40
2022-08-02T20:19:24.976Z,23.15
2022-08-02T20:22:14.056Z,23.23
2022-08-02T20:24:42.715Z,23.30
2022-08-02T20:27:16.409Z,23.17
2022-08-02T20:29:49.883Z,23.16
2022-08-02T20:32:22.599Z,23.26
2022-08-02T20:34:52.626Z,23.04
2022-08-02T20:37:59.687Z,23.25
2022-08-02T20:40:17.164Z,23.40
2022-08-02T20:42:49.233Z,23.29
2022-08-02T20:45:18.163Z,23.29
2022-08-02T20:47:50.733Z,23.31
2022-08-02T20:50:37.163Z,22.87
2022-08-02T20:53:06.522Z,22.88
2022-08-02T20:55:35.794Z,23.07
2022-08-02T20:58:06.142Z,23.12
2022-08-02T21:00:40.748Z,23.06
2022-08-02T21:03:10.228Z,23.04
2022-08-02T21:05:53.979Z,22.98
2022-08-02T21:08:24.396Z,22.85
2022-08-02T21:10:53.448Z,22.83
2022-08-02T21:13:26.148Z,22.90
2022-08-02T21:15:58.865Z,22.70
2022-08-02T21:18:37.027Z,22.86
2022-08-02T21:21:09.993Z,22.72
2022-08-02T21:26:30.678Z,22.58
2022-08-02T21:29:03.816Z,22.65
2022-08-02T21:31:41.235Z,22.62
2022-08-02T21:34:22.346Z,22.49
2022-08-02T21:36:56.069Z,22.54
2022-08-02T21:39:24.272Z,22.46
2022-08-02T21:41:53.042Z,22.45
2022-08-02T21:44:33.977Z,22.30
2022-08-02T21:47:03.388Z,22.24
2022-08-02T21:50:08.921Z,22.25
2022-08-02T21:52:25.839Z,22.25
2022-08-02T21:54:55.882Z,22.08
2022-08-02T21:57:25.391Z,22.08
2022-08-02T22:00:06.286Z,22.16
2022-08-02T22:02:35.441Z,21.79
2022-08-02T22:05:03.773Z,22.05
2022-08-02T22:07:38.171Z,21.97
2022-08-02T22:10:09.293Z,21.94
2022-08-02T22:12:37.527Z,21.82
2022-08-02T22:15:10.532Z,21.84
2022-08-02T22:17:53.224Z,21.79
2022-08-02T22:20:29.180Z,21.83
2022-08-02T22:22:57.419Z,21.81
2022-08-02T22:25:31.486Z,21.86
2022-08-02T22:28:37.413Z,21.81
2022-08-02T22:30:57.322Z,21.51
2022-08-02T22:33:59.955Z,21.44
2022-08-02T22:36:30.378Z,21.38
2022-08-02T22:38:59.503Z,21.31
2022-08-02T22:42:01.553Z,21.44
2022-08-02T22:44:18.471Z,21.19
2022-08-02T22:46:49.785Z,21.17
2022-08-02T22:49:37.780Z,21.38
2022-08-02T22:52:06.945Z,21.24
2022-08-02T22:54:35.028Z,21.33
2022-08-02T22:57:03.192Z,21.42
2022-08-02T22:58:41.285Z,29.94
2022-08-02T22:58:53.395Z,23.96
2022-08-02T22:59:11.086Z,22.68
2022-08-02T22:59:39.398Z,21.41
2022-08-02T23:02:10.828Z,21.23
2022-08-02T23:04:39.268Z,21.32
2022-08-02T23:07:08.301Z,21.28
2022-08-02T23:09:45.297Z,21.08
2022-08-02T23:12:25.512Z,21.06
2022-08-02T23:14:54.256Z,20.95
2022-08-02T23:17:41.425Z,21.00
2022-08-02T23:20:11.455Z,20.99
2022-08-02T23:22:39.932Z,20.99
2022-08-02T23:25:09.485Z,21.01
2022-08-02T23:27:37.819Z,20.94
2022-08-02T23:30:07.219Z,20.83
2022-08-02T23:32:39.246Z,20.90
2022-08-02T23:35:08.294Z,20.82
2022-08-02T23:37:59.632Z,20.64
2022-08-02T23:40:31.693Z,20.60
2022-08-02T23:43:14.723Z,20.61
2022-08-02T23:45:44.546Z,20.41
2022-08-02T23:48:14.385Z,20.63
2022-08-02T23:50:42.467Z,20.65
2022-08-02T23:53:10.625Z,20.49
2022-08-02T23:55:38.704Z,20.48
2022-08-02T23:58:06.808Z,20.37
